createdAt,value
2022-10-05T00:01:24.114Z,3.90
2022-10-05T00:03:52.850Z,6.13
2022-10-05T00:06:19.452Z,6.10
2022-10-05T00:08:46.131Z,6.00
2022-10-05T00:11:14.434Z,6.10
2022-10-05T00:13:41.773Z,8.45
2022-10-05T00:16:11.175Z,6.97
2022-10-05T00:18:38.623Z,4.95
2022-10-05T00:21:20.565Z,5.72
2022-10-05T00:23:48.341Z,4.88
2022-10-05T00:26:21.708Z,4.75
2022-10-05T00:28:48.612Z,5.13
2022-10-05T00:31:19.744Z,5.78
2022-10-05T00:33:47.078Z,4.47
2022-10-05T00:36:13.935Z,4.55
2022-10-05T00:38:41.280Z,6.38
2022-10-05T00:41:51.404Z,5.28
2022-10-05T00:44:33.165Z,5.63
2022-10-05T00:47:17.770Z,4.88
2022-10-05T00:49:56.544Z,5.43
2022-10-05T00:52:30.072Z,4.70
2022-10-05T00:55:10.864Z,7.03
2022-10-05T00:58:20.702Z,6.57
2022-10-05T01:01:02.219Z,5.28
2022-10-05T01:03:51.243Z,7.65
2022-10-05T01:06:56.270Z,5.18
2022-10-05T01:09:31.890Z,4.70
2022-10-05T01:12:21.124Z,6.65
2022-10-05T01:15:14.988Z,9.18
2022-10-05T01:18:10.824Z,8.38
2022-10-05T01:20:37.508Z,6.85
2022-10-05T01:23:28.205Z,6.10
2022-10-05T01:26:24.081Z,5.10
2022-10-05T01:28:56.326Z,8.82
2022-10-05T01:31:40.301Z,6.47
2022-10-05T01:34:25.314Z,6.63
2022-10-05T01:36:58.371Z,6.85
2022-10-05T01:39:58.633Z,7.60
2022-10-05T01:42:40.329Z,5.40
2022-10-05T01:45:57.363Z,8.52
2022-10-05T01:48:35.724Z,5.68
2022-10-05T01:51:11.400Z,6.80
2022-10-05T01:53:59.396Z,5.53
2022-10-05T01:56:34.999Z,7.35
2022-10-05T01:59:16.357Z,5.85
2022-10-05T02:02:03.759Z,6.43
2022-10-05T02:05:00.987Z,9.52
2022-10-05T02:07:34.177Z,6.22
2022-10-05T02:10:36.435Z,5.72
2022-10-05T02:13:48.675Z,6.57
2022-10-05T02:16:36.377Z,5.85
2022-10-05T02:19:15.116Z,8.23
2022-10-05T02:21:46.565Z,5.50
2022-10-05T02:24:21.576Z,7.18
2022-10-05T02:26:51.825Z,5.60
2022-10-05T02:29:22.297Z,7.68
2022-10-05T02:32:00.180Z,6.78
2022-10-05T02:34:41.172Z,5.93
2022-10-05T02:37:24.978Z,7.35
2022-10-05T02:40:13.418Z,5.90
2022-10-05T02:43:00.957Z,5.10
2022-10-05T02:45:33.613Z,9.20
2022-10-05T02:48:17.439Z,6.35
2022-10-05T02:51:01.929Z,6.53
2022-10-05T02:53:47.322Z,5.97
2022-10-05T02:56:29.802Z,11.82
2022-10-05T02:59:21.317Z,9.07
2022-10-05T03:01:52.476Z,7.90
2022-10-05T03:04:24.944Z,7.88
2022-10-05T03:07:02.164Z,6.28
2022-10-05T03:09:36.233Z,8.48
2022-10-05T03:12:21.603Z,6.45
2022-10-05T03:15:06.717Z,6.20
2022-10-05T03:17:50.022Z,7.95
2022-10-05T03:20:24.447Z,8.20
2022-10-05T03:22:53.235Z,6.05
2022-10-05T03:25:28.774Z,7.20
2022-10-05T03:27:55.386Z,6.85
2022-10-05T03:30:25.829Z,8.15
2022-10-05T03:33:11.322Z,7.85
2022-10-05T03:35:56.472Z,8.02
2022-10-05T03:38:38.085Z,6.40
2022-10-05T03:41:17.763Z,7.53
2022-10-05T03:44:11.714Z,9.27
2022-10-05T03:47:05.641Z,9.35
2022-10-05T03:49:40.468Z,11.65
2022-10-05T03:52:15.297Z,9.20
2022-10-05T03:54:47.861Z,9.38
2022-10-05T03:57:24.402Z,9.05
2022-10-05T04:00:12.818Z,8.25
2022-10-05T04:02:54.322Z,7.90
2022-10-05T04:05:25.277Z,7.10
2022-10-05T04:08:07.991Z,7.30
2022-10-05T04:10:45.293Z,6.15
2022-10-05T04:13:18.484Z,6.85
2022-10-05T04:16:06.940Z,6.20
2022-10-05T04:18:42.594Z,9.57
2022-10-05T04:21:21.398Z,7.07
2022-10-05T04:24:43.127Z,7.72
2022-10-05T04:27:16.646Z,7.95
2022-10-05T04:29:52.096Z,7.15
2022-10-05T04:32:36.452Z,6.78
2022-10-05T04:35:18.232Z,7.90
2022-10-05T04:38:03.236Z,7.45
2022-10-05T04:40:39.138Z,13.85
2022-10-05T04:43:33.833Z,7.60
2022-10-05T04:46:19.490Z,7.03
2022-10-05T04:49:14.098Z,6.85
2022-10-05T04:51:59.406Z,6.15
2022-10-05T04:55:04.011Z,9.48
2022-10-05T04:57:57.266Z,6.78
2022-10-05T05:00:36.593Z,6.20
2022-10-05T05:03:12.351Z,7.72
2022-10-05T05:06:17.677Z,9.40
2022-10-05T05:09:22.244Z,7.30
2022-10-05T05:12:04.052Z,6.47
2022-10-05T05:14:33.294Z,6.38
2022-10-05T05:17:17.366Z,7.05
2022-10-05T05:20:42.586Z,7.95
2022-10-05T05:23:36.036Z,8.30
2022-10-05T05:26:38.976Z,6.50
2022-10-05T05:29:21.858Z,10.45
2022-10-05T05:31:54.575Z,6.40
2022-10-05T05:34:54.930Z,6.97
2022-10-05T05:37:33.395Z,7.32
2022-10-05T05:40:15.313Z,6.85
2022-10-05T05:43:00.385Z,7.10
2022-10-05T05:45:50.366Z,6.95
2022-10-05T05:48:36.782Z,6.10
2022-10-05T05:51:43.825Z,7.13
2022-10-05T05:54:16.295Z,11.57
2022-10-05T05:57:08.959Z,7.10
2022-10-05T06:00:06.212Z,8.48
2022-10-05T06:02:48.438Z,9.00
2022-10-05T06:05:21.113Z,5.97
2022-10-05T06:07:48.026Z,8.07
2022-10-05T06:10:34.851Z,8.40
2022-10-05T06:13:10.602Z,6.45
2022-10-05T06:15:50.638Z,6.27
2022-10-05T06:18:20.577Z,6.82
2022-10-05T06:20:51.512Z,6.07
2022-10-05T06:23:39.999Z,8.40
2022-10-05T06:26:18.102Z,7.10
2022-10-05T06:28:53.530Z,8.05
2022-10-05T06:32:14.954Z,8.55
2022-10-05T06:34:50.707Z,5.80
2022-10-05T06:37:40.354Z,7.47
2022-10-05T06:40:27.234Z,6.78
2022-10-05T06:43:40.656Z,10.05
2022-10-05T06:46:23.259Z,8.18
2022-10-05T06:49:04.836Z,10.98
2022-10-05T06:51:46.875Z,6.10
2022-10-05T06:54:57.882Z,6.35
2022-10-05T06:57:44.962Z,7.78
2022-10-05T07:00:18.328Z,8.63
2022-10-05T07:02:48.629Z,12.18
2022-10-05T07:05:44.960Z,5.63
2022-10-05T07:08:47.785Z,6.32
2022-10-05T07:11:48.991Z,5.95
2022-10-05T07:14:39.921Z,7.03
2022-10-05T07:17:30.735Z,6.35
2022-10-05T07:20:15.795Z,10.68
2022-10-05T07:22:50.329Z,6.60
2022-10-05T07:25:28.935Z,6.07
2022-10-05T07:28:08.000Z,6.82
2022-10-05T07:31:05.009Z,8.65
2022-10-05T07:33:46.387Z,4.47
2022-10-05T07:36:50.924Z,4.93
2022-10-05T07:39:59.467Z,5.07
2022-10-05T07:43:00.010Z,4.97
2022-10-05T07:45:51.654Z,5.00
2022-10-05T07:48:26.760Z,5.20
2022-10-05T07:51:16.164Z,4.32
2022-10-05T07:53:57.540Z,6.43
2022-10-05T07:56:34.069Z,4.80
2022-10-05T07:59:07.904Z,4.03
2022-10-05T08:01:48.800Z,5.43
2022-10-05T08:04:27.768Z,5.20
2022-10-05T08:06:59.336Z,3.95
2022-10-05T08:09:43.110Z,5.05
2022-10-05T08:12:24.821Z,4.55
2022-10-05T08:15:03.782Z,4.15
2022-10-05T08:17:55.344Z,5.60
2022-10-05T08:20:33.827Z,3.67
2022-10-05T08:23:25.181Z,7.43
2022-10-05T08:26:05.510Z,3.85
2022-10-05T08:28:59.089Z,4.07
2022-10-05T08:31:40.151Z,3.75
2022-10-05T08:34:27.840Z,3.90
2022-10-05T08:37:08.698Z,4.95
2022-10-05T08:40:04.713Z,5.53
2022-10-05T08:43:08.953Z,4.97
2022-10-05T08:45:55.462Z,3.08
2022-10-05T08:48:40.521Z,3.65
2022-10-05T08:51:23.242Z,3.22
2022-10-05T08:54:05.207Z,4.93
2022-10-05T08:56:46.016Z,3.47
2022-10-05T08:59:34.903Z,6.10
2022-10-05T09:02:20.363Z,4.10
2022-10-05T09:04:58.342Z,4.07
2022-10-05T09:07:39.192Z,5.70
2022-10-05T09:10:20.854Z,3.95
2022-10-05T09:13:04.997Z,3.40
2022-10-05T09:16:04.418Z,3.05
2022-10-05T09:18:49.889Z,4.97
2022-10-05T09:21:37.934Z,3.30
2022-10-05T09:24:13.542Z,3.40
2022-10-05T09:27:00.425Z,6.00
2022-10-05T09:29:49.047Z,5.25
2022-10-05T09:32:31.028Z,6.13
2022-10-05T09:35:16.637Z,3.28
2022-10-05T09:38:03.456Z,4.30
2022-10-05T09:41:14.690Z,2.83
2022-10-05T09:44:05.102Z,3.92
2022-10-05T09:46:47.686Z,3.28
2022-10-05T09:49:17.085Z,3.90
2022-10-05T09:52:02.028Z,3.53
2022-10-05T09:54:40.356Z,3.35
2022-10-05T09:57:15.972Z,3.60
2022-10-05T09:59:45.431Z,3.20
2022-10-05T10:02:28.359Z,2.78
2022-10-05T10:05:39.063Z,3.28
2022-10-05T10:08:38.075Z,3.38
2022-10-05T10:11:10.226Z,3.55
2022-10-05T10:14:00.184Z,3.67
2022-10-05T10:16:53.697Z,3.35
2022-10-05T10:20:05.324Z,4.50
2022-10-05T10:22:34.580Z,9.80
2022-10-05T10:25:37.979Z,4.70
2022-10-05T10:28:20.394Z,2.90
2022-10-05T10:31:16.106Z,3.70
2022-10-05T10:34:07.016Z,5.15
2022-10-05T10:36:52.456Z,4.53
2022-10-05T10:39:54.093Z,3.92
2022-10-05T10:42:49.120Z,3.70
2022-10-05T10:45:29.820Z,4.47
2022-10-05T10:48:09.073Z,3.55
2022-10-05T10:51:11.270Z,2.78
2022-10-05T10:54:05.534Z,2.78
2022-10-05T10:56:44.270Z,3.45
2022-10-05T10:59:35.816Z,5.25
2022-10-05T11:02:21.319Z,3.35
2022-10-05T11:05:18.420Z,7.50
2022-10-05T11:07:58.256Z,2.95
2022-10-05T11:10:27.562Z,5.68
2022-10-05T11:13:31.657Z,3.63
2022-10-05T11:16:19.964Z,4.20
2022-10-05T11:19:11.032Z,2.55
2022-10-05T11:22:17.181Z,2.70
2022-10-05T11:24:55.748Z,2.45
2022-10-05T11:27:57.657Z,3.97
2022-10-05T11:31:01.886Z,2.95
2022-10-05T11:33:59.876Z,3.88
2022-10-05T11:37:02.977Z,6.47
2022-10-05T11:39:40.045Z,2.78
2022-10-05T11:42:23.525Z,2.55
2022-10-05T11:45:14.491Z,6.38
2022-10-05T11:48:04.455Z,4.55
2022-10-05T11:50:32.691Z,3.35
2022-10-05T11:53:24.466Z,2.70
2022-10-05T11:56:34.874Z,2.55
2022-10-05T11:59:35.790Z,2.58
2022-10-05T12:02:32.272Z,3.67
2022-10-05T12:05:01.846Z,4.80
2022-10-05T12:07:45.686Z,2.90
2022-10-05T12:10:28.916Z,2.67
2022-10-05T12:13:08.779Z,2.63
2022-10-05T12:15:52.712Z,4.43
2022-10-05T12:18:48.926Z,2.10
2022-10-05T12:21:22.762Z,2.17
2022-10-05T12:24:01.034Z,2.90
2022-10-05T12:26:37.855Z,2.60
2022-10-05T12:29:26.188Z,2.15
2022-10-05T12:32:17.481Z,2.92
2022-10-05T12:35:03.277Z,2.55
2022-10-05T12:37:50.679Z,3.10
2022-10-05T12:40:43.590Z,2.20
2022-10-05T12:43:48.871Z,4.10
2022-10-05T12:46:40.186Z,2.40
2022-10-05T12:49:06.633Z,3.97
2022-10-05T12:51:36.130Z,3.45
2022-10-05T12:54:23.790Z,3.28
2022-10-05T12:57:13.760Z,4.60
2022-10-05T13:00:03.632Z,2.40
2022-10-05T13:03:00.175Z,2.10
2022-10-05T13:05:46.978Z,2.30
2022-10-05T13:08:36.289Z,3.45
2022-10-05T13:11:16.192Z,4.03
2022-10-05T13:14:02.470Z,5.68
2022-10-05T13:16:50.158Z,2.78
2022-10-05T13:19:37.051Z,2.50
2022-10-05T13:22:32.851Z,2.10
2022-10-05T13:25:14.278Z,2.67
2022-10-05T13:28:02.494Z,7.60
2022-10-05T13:30:29.671Z,3.35
2022-10-05T13:33:32.170Z,10.43
2022-10-05T13:36:13.674Z,3.13
2022-10-05T13:38:43.401Z,2.60
2022-10-05T13:41:34.611Z,3.00
2022-10-05T13:44:16.960Z,4.22
2022-10-05T13:47:00.016Z,2.33
2022-10-05T13:49:44.729Z,3.10
2022-10-05T13:52:42.526Z,2.42
2022-10-05T13:55:21.095Z,4.10
2022-10-05T13:58:07.668Z,4.68
2022-10-05T14:00:47.180Z,2.45
2022-10-05T14:03:40.088Z,2.15
2022-10-05T14:06:27.696Z,4.68
2022-10-05T14:08:54.525Z,3.55
2022-10-05T14:11:31.468Z,7.25
2022-10-05T14:14:13.790Z,6.05
2022-10-05T14:17:00.935Z,1.85
2022-10-05T14:19:32.428Z,2.70
2022-10-05T14:22:24.211Z,4.72
2022-10-05T14:25:02.755Z,2.20
2022-10-05T14:27:33.548Z,2.17
2022-10-05T14:30:23.714Z,6.20
2022-10-05T14:32:57.215Z,2.50
2022-10-05T14:35:29.386Z,2.55
2022-10-05T14:38:02.450Z,2.55
2022-10-05T14:40:34.275Z,3.90
2022-10-05T14:43:16.406Z,1.90
2022-10-05T14:46:01.558Z,1.60
2022-10-05T14:48:38.704Z,5.85
2022-10-05T14:51:10.844Z,3.10
2022-10-05T14:53:41.357Z,2.83
2022-10-05T14:56:51.163Z,1.85
2022-10-05T14:59:33.732Z,1.85
2022-10-05T15:02:26.889Z,2.05
2022-10-05T15:05:01.706Z,6.13
2022-10-05T15:07:34.378Z,3.92
2022-10-05T15:10:27.103Z,1.55
2022-10-05T15:13:17.438Z,2.60
2022-10-05T15:15:50.572Z,6.07
2022-10-05T15:18:31.952Z,2.60
2022-10-05T15:21:22.595Z,1.90
2022-10-05T15:24:14.991Z,1.80
2022-10-05T15:27:00.163Z,2.88
2022-10-05T15:29:55.583Z,1.58
2022-10-05T15:32:42.144Z,1.52
2022-10-05T15:35:27.318Z,1.65
2022-10-05T15:37:59.748Z,1.75
2022-10-05T15:41:05.539Z,4.53
2022-10-05T15:44:10.930Z,3.72
2022-10-05T15:46:45.177Z,3.90
2022-10-05T15:49:50.725Z,1.83
2022-10-05T15:52:29.750Z,1.63
2022-10-05T15:55:05.085Z,2.03
2022-10-05T15:57:43.895Z,2.20
2022-10-05T16:00:13.031Z,2.20
2022-10-05T16:02:55.574Z,1.80
2022-10-05T16:05:50.384Z,1.88
2022-10-05T16:08:50.576Z,1.80
2022-10-05T16:11:31.737Z,1.75
2022-10-05T16:14:22.284Z,2.50
2022-10-05T16:17:00.547Z,3.58
2022-10-05T16:19:38.136Z,1.70
2022-10-05T16:22:43.522Z,4.68
2022-10-05T16:25:13.030Z,2.38
2022-10-05T16:27:52.706Z,2.78
2022-10-05T16:30:23.005Z,4.93
2022-10-05T16:33:02.237Z,2.75
2022-10-05T16:35:43.648Z,2.75
2022-10-05T16:38:19.426Z,4.20
2022-10-05T16:41:03.741Z,5.60
2022-10-05T16:43:49.596Z,1.80
2022-10-05T16:46:35.106Z,3.47
2022-10-05T16:49:44.503Z,2.78
2022-10-05T16:52:16.298Z,5.15
2022-10-05T16:54:48.977Z,4.45
2022-10-05T16:57:22.566Z,3.35
2022-10-05T17:00:17.422Z,3.20
2022-10-05T17:03:10.281Z,2.95
2022-10-05T17:06:01.685Z,3.05
2022-10-05T17:08:46.604Z,4.43
2022-10-05T17:11:22.206Z,2.20
2022-10-05T17:14:15.189Z,3.60
2022-10-05T17:16:44.688Z,5.00
2022-10-05T17:19:11.264Z,4.50
2022-10-05T17:22:00.782Z,8.07
2022-10-05T17:25:02.348Z,3.50
2022-10-05T17:27:31.950Z,1.60
2022-10-05T17:30:23.576Z,4.82
2022-10-05T17:32:58.290Z,4.03
2022-10-05T17:35:50.877Z,2.88
2022-10-05T17:38:35.427Z,2.35
2022-10-05T17:41:20.172Z,1.30
2022-10-05T17:44:06.958Z,1.63
2022-10-05T17:46:39.674Z,2.50
2022-10-05T17:49:34.942Z,3.45
2022-10-05T17:52:23.718Z,1.30
2022-10-05T17:55:09.028Z,3.63
2022-10-05T17:57:40.291Z,1.50
2022-10-05T18:00:33.629Z,3.63
2022-10-05T18:03:00.333Z,1.85
2022-10-05T18:05:30.835Z,6.45
2022-10-05T18:08:12.999Z,2.47
2022-10-05T18:11:08.398Z,3.20
2022-10-05T18:13:41.639Z,2.25
2022-10-05T18:16:10.322Z,3.15
2022-10-05T18:18:44.475Z,2.78
2022-10-05T18:21:14.002Z,5.97
2022-10-05T18:24:00.737Z,2.15
2022-10-05T18:26:41.650Z,3.80
2022-10-05T18:29:48.686Z,3.63
2022-10-05T18:32:47.512Z,8.50
2022-10-05T18:35:22.536Z,2.20
2022-10-05T18:38:28.000Z,5.57
2022-10-05T18:41:09.086Z,4.53
2022-10-05T18:43:46.032Z,4.18
2022-10-05T18:46:39.858Z,3.90
2022-10-05T18:49:28.786Z,3.92
2022-10-05T18:52:09.556Z,4.68
2022-10-05T18:55:02.514Z,3.13
2022-10-05T18:57:38.653Z,2.15
2022-10-05T19:00:25.423Z,4.40
2022-10-05T19:02:57.233Z,2.50
2022-10-05T19:05:56.400Z,1.98
2022-10-05T19:08:32.970Z,3.20
2022-10-05T19:13:58.250Z,3.35
2022-10-05T19:16:24.837Z,4.15
2022-10-05T19:19:29.383Z,2.13
2022-10-05T19:22:03.612Z,2.10
2022-10-05T19:24:48.232Z,2.50
2022-10-05T19:27:36.435Z,2.60
2022-10-05T19:30:18.234Z,6.32
2022-10-05T19:33:22.615Z,1.77
2022-10-05T19:35:58.307Z,4.38
2022-10-05T19:38:46.964Z,3.22
2022-10-05T19:41:22.550Z,2.00
2022-10-05T19:44:09.452Z,2.00
2022-10-05T19:46:56.282Z,2.85
2022-10-05T19:49:37.691Z,2.85
2022-10-05T19:52:11.960Z,1.95
2022-10-05T19:54:39.234Z,2.50
2022-10-05T19:57:17.875Z,1.90
2022-10-05T19:59:48.368Z,2.63
2022-10-05T20:02:17.072Z,1.45
2022-10-05T20:04:47.492Z,2.65
2022-10-05T20:07:17.440Z,5.93
2022-10-05T20:09:59.305Z,1.85
2022-10-05T20:12:50.609Z,3.05
2022-10-05T20:15:41.837Z,1.98
2022-10-05T20:18:58.348Z,3.47
2022-10-05T20:21:49.809Z,1.90
2022-10-05T20:24:26.715Z,1.50
2022-10-05T20:27:16.411Z,4.45
2022-10-05T20:29:44.917Z,12.05
2022-10-05T20:32:14.167Z,4.03
2022-10-05T20:34:47.995Z,2.33
2022-10-05T20:37:16.849Z,2.08
2022-10-05T20:39:44.041Z,7.13
2022-10-05T20:42:11.287Z,2.40
2022-10-05T20:44:38.117Z,5.30
2022-10-05T20:47:09.089Z,1.95
2022-10-05T20:49:37.251Z,4.65
2022-10-05T20:52:06.158Z,4.68
2022-10-05T20:54:32.811Z,3.83
2022-10-05T20:56:59.518Z,7.95
2022-10-05T20:59:26.707Z,3.40
2022-10-05T21:01:53.623Z,3.28
2022-10-05T21:04:25.236Z,1.50
2022-10-05T21:06:52.975Z,1.67
2022-10-05T21:09:21.511Z,3.22
2022-10-05T21:11:55.476Z,0.88
2022-10-05T21:14:23.705Z,0.73
2022-10-05T21:16:51.095Z,1.48
2022-10-05T21:19:17.723Z,0.50
2022-10-05T21:21:45.770Z,1.13
2022-10-05T21:24:14.360Z,0.90
2022-10-05T21:26:42.109Z,0.40
2022-10-05T21:29:12.794Z,0.50
2022-10-05T21:31:40.656Z,1.17
2022-10-05T21:34:07.768Z,0.70
2022-10-05T21:36:34.666Z,1.13
2022-10-05T21:39:02.978Z,0.63
2022-10-05T21:41:29.631Z,0.85
2022-10-05T21:43:56.207Z,0.70
2022-10-05T21:46:26.598Z,0.40
2022-10-05T21:48:54.481Z,3.53
2022-10-05T21:51:23.872Z,0.52
2022-10-05T21:53:55.961Z,2.95
2022-10-05T21:56:27.185Z,2.13
2022-10-05T21:58:53.963Z,0.70
2022-10-05T22:01:22.922Z,1.23
2022-10-05T22:03:49.999Z,3.03
2022-10-05T22:06:16.570Z,2.30
2022-10-05T22:08:43.309Z,2.28
2022-10-05T22:11:15.551Z,1.10
2022-10-05T22:13:50.996Z,1.35
2022-10-05T22:16:20.365Z,0.55
2022-10-05T22:18:49.111Z,0.68
2022-10-05T22:21:16.939Z,0.35
2022-10-05T22:23:45.649Z,1.05
2022-10-05T22:26:16.120Z,0.90
2022-10-05T22:28:44.412Z,2.15
2022-10-05T22:31:12.545Z,1.75
2022-10-05T22:33:40.021Z,0.60
2022-10-05T22:36:07.854Z,1.45
2022-10-05T22:38:34.684Z,2.83
2022-10-05T22:41:01.341Z,1.73
2022-10-05T22:43:28.217Z,3.72
2022-10-05T22:45:56.045Z,1.42
2022-10-05T22:48:22.675Z,3.65
2022-10-05T22:50:49.482Z,3.13
2022-10-05T22:53:16.239Z,2.35
2022-10-05T22:55:42.891Z,1.75
2022-10-05T22:58:09.412Z,1.13
2022-10-05T23:00:57.156Z,3.10
2022-10-05T23:03:22.662Z,2.15
2022-10-05T23:05:58.820Z,1.45
2022-10-05T23:08:25.821Z,0.45
2022-10-05T23:10:52.688Z,1.50
2022-10-05T23:13:19.261Z,1.00
2022-10-05T23:15:45.865Z,0.68
2022-10-05T23:18:12.325Z,0.70
2022-10-05T23:20:40.181Z,4.95
2022-10-05T23:23:06.761Z,2.00
2022-10-05T23:25:33.598Z,1.85
2022-10-05T23:28:02.479Z,0.85
2022-10-05T23:30:29.152Z,1.23
2022-10-05T23:32:55.742Z,0.85
2022-10-05T23:35:22.496Z,1.67
2022-10-05T23:37:49.055Z,1.60
2022-10-05T23:40:15.735Z,0.68
2022-10-05T23:42:42.429Z,1.13
2022-10-05T23:45:11.145Z,1.65
2022-10-05T23:47:38.629Z,0.85
2022-10-05T23:50:08.986Z,1.88
2022-10-05T23:52:36.565Z,0.65
2022-10-05T23:55:04.815Z,0.47
2022-10-05T23:57:31.517Z,1.45
2022-10-05T23:59:58.061Z,1.05
